sensor_id;sensor_type;location;lat;lon;timestamp;temperature;humidity
22173;DHT22;11252;50.596;17.648;2022-09-17T00:01:22;9.70;92.20
22173;DHT22;11252;50.596;17.648;2022-09-17T00:03:52;9.70;92.20
22173;DHT22;11252;50.596;17.648;2022-09-17T00:06:22;9.60;92.20
22173;DHT22;11252;50.596;17.648;2022-09-17T00:08:49;9.70;92.20
22173;DHT22;11252;50.596;17.648;2022-09-17T00:11:24;9.70;92.20
22173;DHT22;11252;50.596;17.648;2022-09-17T00:13:53;9.70;92.20
22173;DHT22;11252;50.596;17.648;2022-09-17T00:16:25;9.60;92.20
22173;DHT22;11252;50.596;17.648;2022-09-17T00:18:54;9.60;92.20
22173;DHT22;11252;50.596;17.648;2022-09-17T00:21:22;9.60;92.20
22173;DHT22;11252;50.596;17.648;2022-09-17T00:23:58;9.60;92.20
22173;DHT22;11252;50.596;17.648;2022-09-17T00:26:26;9.60;92.20
22173;DHT22;11252;50.596;17.648;2022-09-17T00:28:55;9.60;92.20
22173;DHT22;11252;50.596;17.648;2022-09-17T00:31:24;9.60;92.20
22173;DHT22;11252;50.596;17.648;2022-09-17T00:33:52;9.60;92.20
22173;DHT22;11252;50.596;17.648;2022-09-17T00:36:21;9.60;92.20
22173;DHT22;11252;50.596;17.648;2022-09-17T00:38:50;9.50;92.20
22173;DHT22;11252;50.596;17.648;2022-09-17T00:41:19;9.60;92.20
22173;DHT22;11252;50.596;17.648;2022-09-17T00:43:57;9.50;92.20
22173;DHT22;11252;50.596;17.648;2022-09-17T00:46:35;9.60;92.20
22173;DHT22;11252;50.596;17.648;2022-09-17T00:49:10;9.50;92.20
22173;DHT22;11252;50.596;17.648;2022-09-17T00:51:43;9.50;92.20
22173;DHT22;11252;50.596;17.648;2022-09-17T00:54:12;9.40;92.20
22173;DHT22;11252;50.596;17.648;2022-09-17T00:56:40;9.30;92.20
22173;DHT22;11252;50.596;17.648;2022-09-17T00:59:09;9.20;92.20
22173;DHT22;11252;50.596;17.648;2022-09-17T01:01:37;9.20;92.20
22173;DHT22;11252;50.596;17.648;2022-09-17T01:04:05;9.10;92.20
22173;DHT22;11252;50.596;17.648;2022-09-17T01:07:08;9.10;92.20
22173;DHT22;11252;50.596;17.648;2022-09-17T01:15:33;9.20;92.20
22173;DHT22;11252;50.596;17.648;2022-09-17T01:21:19;9.20;92.20
22173;DHT22;11252;50.596;17.648;2022-09-17T01:32:23;9.10;92.20
22173;DHT22;11252;50.596;17.648;2022-09-17T01:37:43;8.90;92.20
22173;DHT22;11252;50.596;17.648;2022-09-17T01:40:20;8.90;92.20
22173;DHT22;11252;50.596;17.648;2022-09-17T01:45:46;8.80;92.20
22173;DHT22;11252;50.596;17.648;2022-09-17T01:50:52;8.70;92.20
22173;DHT22;11252;50.596;17.648;2022-09-17T01:53:24;8.70;92.20
22173;DHT22;11252;50.596;17.648;2022-09-17T01:55:56;8.80;92.20
22173;DHT22;11252;50.596;17.648;2022-09-17T01:58:32;8.80;92.20
22173;DHT22;11252;50.596;17.648;2022-09-17T02:01:04;8.90;92.20
22173;DHT22;11252;50.596;17.648;2022-09-17T02:03:45;8.90;92.20
22173;DHT22;11252;50.596;17.648;2022-09-17T02:06:18;8.80;92.20
22173;DHT22;11252;50.596;17.648;2022-09-17T02:08:51;8.90;92.20
22173;DHT22;11252;50.596;17.648;2022-09-17T02:11:20;8.90;92.20
22173;DHT22;11252;50.596;17.648;2022-09-17T02:17:06;8.80;92.20
22173;DHT22;11252;50.596;17.648;2022-09-17T02:19:38;8.80;92.20
22173;DHT22;11252;50.596;17.648;2022-09-17T02:25:22;8.60;92.20
22173;DHT22;11252;50.596;17.648;2022-09-17T02:30:22;8.60;92.20
22173;DHT22;11252;50.596;17.648;2022-09-17T02:32:49;8.60;92.20
22173;DHT22;11252;50.596;17.648;2022-09-17T02:35:17;8.50;92.20
22173;DHT22;11252;50.596;17.648;2022-09-17T02:37:46;8.50;92.20
22173;DHT22;11252;50.596;17.648;2022-09-17T02:40:16;8.40;92.20
22173;DHT22;11252;50.596;17.648;2022-09-17T02:48:44;8.40;92.20
22173;DHT22;11252;50.596;17.648;2022-09-17T02:55:28;8.40;92.20
22173;DHT22;11252;50.596;17.648;2022-09-17T02:57:37;8.40;92.20
22173;DHT22;11252;50.596;17.648;2022-09-17T03:00:32;8.40;92.20
22173;DHT22;11252;50.596;17.648;2022-09-17T03:03:07;8.60;92.20
22173;DHT22;11252;50.596;17.648;2022-09-17T03:05:37;8.70;92.20
22173;DHT22;11252;50.596;17.648;2022-09-17T03:08:08;8.80;92.20
22173;DHT22;11252;50.596;17.648;2022-09-17T03:10:35;8.80;92.20
22173;DHT22;11252;50.596;17.648;2022-09-17T03:13:03;8.80;92.20
22173;DHT22;11252;50.596;17.648;2022-09-17T03:15:31;8.90;92.20
22173;DHT22;11252;50.596;17.648;2022-09-17T03:17:58;8.90;92.20
22173;DHT22;11252;50.596;17.648;2022-09-17T03:20:25;8.90;92.20
22173;DHT22;11252;50.596;17.648;2022-09-17T03:22:53;8.80;92.20
22173;DHT22;11252;50.596;17.648;2022-09-17T03:25:20;8.80;92.20
22173;DHT22;11252;50.596;17.648;2022-09-17T03:27:47;8.80;92.20
22173;DHT22;11252;50.596;17.648;2022-09-17T03:30:15;8.80;92.20
22173;DHT22;11252;50.596;17.648;2022-09-17T03:32:42;8.70;92.20
22173;DHT22;11252;50.596;17.648;2022-09-17T03:35:10;8.60;92.20
22173;DHT22;11252;50.596;17.648;2022-09-17T03:37:37;8.60;92.20
22173;DHT22;11252;50.596;17.648;2022-09-17T03:40:05;8.60;92.20
22173;DHT22;11252;50.596;17.648;2022-09-17T03:42:33;8.50;92.20
22173;DHT22;11252;50.596;17.648;2022-09-17T03:45:00;8.50;92.20
22173;DHT22;11252;50.596;17.648;2022-09-17T03:47:28;8.60;92.20
22173;DHT22;11252;50.596;17.648;2022-09-17T03:49:56;8.60;92.20
22173;DHT22;11252;50.596;17.648;2022-09-17T03:52:23;8.50;92.20
22173;DHT22;11252;50.596;17.648;2022-09-17T03:54:50;8.40;92.20
22173;DHT22;11252;50.596;17.648;2022-09-17T03:57:18;8.40;92.20
22173;DHT22;11252;50.596;17.648;2022-09-17T03:59:45;8.40;92.20
22173;DHT22;11252;50.596;17.648;2022-09-17T04:02:13;8.40;92.20
22173;DHT22;11252;50.596;17.648;2022-09-17T04:04:40;8.40;92.20
22173;DHT22;11252;50.596;17.648;2022-09-17T04:07:07;8.50;92.20
22173;DHT22;11252;50.596;17.648;2022-09-17T04:09:35;8.60;92.20
22173;DHT22;11252;50.596;17.648;2022-09-17T04:12:02;8.60;92.20
22173;DHT22;11252;50.596;17.648;2022-09-17T04:14:30;8.60;92.20
22173;DHT22;11252;50.596;17.648;2022-09-17T04:16:58;8.60;92.20
22173;DHT22;11252;50.596;17.648;2022-09-17T04:19:25;8.60;92.20
22173;DHT22;11252;50.596;17.648;2022-09-17T04:21:53;8.50;92.20
22173;DHT22;11252;50.596;17.648;2022-09-17T04:24:20;8.50;92.20
22173;DHT22;11252;50.596;17.648;2022-09-17T04:26:47;8.40;92.20
22173;DHT22;11252;50.596;17.648;2022-09-17T04:29:14;8.50;92.20
22173;DHT22;11252;50.596;17.648;2022-09-17T04:31:42;8.60;92.20
22173;DHT22;11252;50.596;17.648;2022-09-17T04:34:09;8.50;92.20
22173;DHT22;11252;50.596;17.648;2022-09-17T04:36:37;8.50;92.20
22173;DHT22;11252;50.596;17.648;2022-09-17T04:39:04;8.50;92.20
22173;DHT22;11252;50.596;17.648;2022-09-17T04:41:32;8.50;92.20
22173;DHT22;11252;50.596;17.648;2022-09-17T04:43:59;8.50;92.20
22173;DHT22;11252;50.596;17.648;2022-09-17T04:46:29;8.60;92.20
22173;DHT22;11252;50.596;17.648;2022-09-17T04:48:56;8.80;92.20
22173;DHT22;11252;50.596;17.648;2022-09-17T04:51:24;8.90;92.20
22173;DHT22;11252;50.596;17.648;2022-09-17T04:53:51;9.00;92.20
22173;DHT22;11252;50.596;17.648;2022-09-17T04:56:19;9.20;92.20
22173;DHT22;11252;50.596;17.648;2022-09-17T04:58:47;9.30;92.20
22173;DHT22;11252;50.596;17.648;2022-09-17T05:01:14;9.40;92.20
22173;DHT22;11252;50.596;17.648;2022-09-17T05:03:45;9.60;92.20
22173;DHT22;11252;50.596;17.648;2022-09-17T05:06:13;9.70;92.20
22173;DHT22;11252;50.596;17.648;2022-09-17T05:08:40;9.80;92.20
22173;DHT22;11252;50.596;17.648;2022-09-17T05:11:07;9.90;92.20
22173;DHT22;11252;50.596;17.648;2022-09-17T05:13:35;9.90;92.20
22173;DHT22;11252;50.596;17.648;2022-09-17T05:16:02;10.00;92.20
22173;DHT22;11252;50.596;17.648;2022-09-17T05:18:29;10.00;92.20
22173;DHT22;11252;50.596;17.648;2022-09-17T05:20:57;10.10;92.20
22173;DHT22;11252;50.596;17.648;2022-09-17T05:23:25;10.10;92.20
22173;DHT22;11252;50.596;17.648;2022-09-17T05:25:56;10.20;92.20
22173;DHT22;11252;50.596;17.648;2022-09-17T05:28:23;10.20;92.20
22173;DHT22;11252;50.596;17.648;2022-09-17T05:30:50;10.30;92.20
22173;DHT22;11252;50.596;17.648;2022-09-17T05:33:18;10.30;92.20
22173;DHT22;11252;50.596;17.648;2022-09-17T05:35:46;10.30;92.20
22173;DHT22;11252;50.596;17.648;2022-09-17T05:38:13;10.40;92.20
22173;DHT22;11252;50.596;17.648;2022-09-17T05:40:41;10.40;92.20
22173;DHT22;11252;50.596;17.648;2022-09-17T05:43:09;10.50;92.20
22173;DHT22;11252;50.596;17.648;2022-09-17T05:45:37;10.50;92.20
22173;DHT22;11252;50.596;17.648;2022-09-17T05:48:08;10.50;92.20
22173;DHT22;11252;50.596;17.648;2022-09-17T05:50:38;10.60;92.20
22173;DHT22;11252;50.596;17.648;2022-09-17T05:53:07;10.60;92.20
22173;DHT22;11252;50.596;17.648;2022-09-17T05:55:36;10.50;92.20
22173;DHT22;11252;50.596;17.648;2022-09-17T05:58:16;10.50;92.20
22173;DHT22;11252;50.596;17.648;2022-09-17T06:00:45;10.40;92.20
22173;DHT22;11252;50.596;17.648;2022-09-17T06:03:17;10.50;92.20
22173;DHT22;11252;50.596;17.648;2022-09-17T06:05:56;10.40;92.20
22173;DHT22;11252;50.596;17.648;2022-09-17T06:08:25;10.50;92.20
22173;DHT22;11252;50.596;17.648;2022-09-17T06:10:53;10.40;92.20
22173;DHT22;11252;50.596;17.648;2022-09-17T06:13:27;10.50;92.20
22173;DHT22;11252;50.596;17.648;2022-09-17T06:15:55;10.50;92.20
22173;DHT22;11252;50.596;17.648;2022-09-17T06:18:24;10.60;92.20
22173;DHT22;11252;50.596;17.648;2022-09-17T06:20:56;10.60;92.20
22173;DHT22;11252;50.596;17.648;2022-09-17T06:23:24;10.60;92.20
22173;DHT22;11252;50.596;17.648;2022-09-17T06:25:54;10.60;92.20
22173;DHT22;11252;50.596;17.648;2022-09-17T06:28:22;10.70;92.20
22173;DHT22;11252;50.596;17.648;2022-09-17T06:30:50;10.80;92.20
22173;DHT22;11252;50.596;17.648;2022-09-17T06:33:22;10.80;92.20
22173;DHT22;11252;50.596;17.648;2022-09-17T06:35:55;10.90;92.20
22173;DHT22;11252;50.596;17.648;2022-09-17T06:38:24;10.90;92.20
22173;DHT22;11252;50.596;17.648;2022-09-17T06:40:51;11.00;92.20
22173;DHT22;11252;50.596;17.648;2022-09-17T06:43:19;11.00;92.20
22173;DHT22;11252;50.596;17.648;2022-09-17T06:45:53;11.10;92.20
22173;DHT22;11252;50.596;17.648;2022-09-17T06:48:22;11.20;92.20
22173;DHT22;11252;50.596;17.648;2022-09-17T06:50:50;11.10;92.20
22173;DHT22;11252;50.596;17.648;2022-09-17T06:53:20;11.20;92.20
22173;DHT22;11252;50.596;17.648;2022-09-17T06:55:49;11.20;92.20
22173;DHT22;11252;50.596;17.648;2022-09-17T06:58:16;11.20;92.20
22173;DHT22;11252;50.596;17.648;2022-09-17T07:00:44;11.20;92.20
22173;DHT22;11252;50.596;17.648;2022-09-17T07:03:11;11.20;92.20
22173;DHT22;11252;50.596;17.648;2022-09-17T07:05:39;11.30;92.20
22173;DHT22;11252;50.596;17.648;2022-09-17T07:08:09;11.30;92.20
22173;DHT22;11252;50.596;17.648;2022-09-17T07:10:36;11.30;92.20
22173;DHT22;11252;50.596;17.648;2022-09-17T07:13:04;11.30;92.20
22173;DHT22;11252;50.596;17.648;2022-09-17T07:15:32;11.30;92.20
22173;DHT22;11252;50.596;17.648;2022-09-17T07:18:06;11.40;92.20
22173;DHT22;11252;50.596;17.648;2022-09-17T07:20:33;11.40;92.20
22173;DHT22;11252;50.596;17.648;2022-09-17T07:23:00;11.50;92.20
22173;DHT22;11252;50.596;17.648;2022-09-17T07:25:28;11.50;92.20
22173;DHT22;11252;50.596;17.648;2022-09-17T07:27:55;11.60;92.20
22173;DHT22;11252;50.596;17.648;2022-09-17T07:30:23;11.70;92.20
22173;DHT22;11252;50.596;17.648;2022-09-17T07:32:50;11.80;92.20
22173;DHT22;11252;50.596;17.648;2022-09-17T07:35:17;11.80;92.20
22173;DHT22;11252;50.596;17.648;2022-09-17T07:37:45;12.00;92.20
22173;DHT22;11252;50.596;17.648;2022-09-17T07:40:13;12.20;92.20
22173;DHT22;11252;50.596;17.648;2022-09-17T07:42:41;12.30;92.20
22173;DHT22;11252;50.596;17.648;2022-09-17T07:45:08;12.40;92.20
22173;DHT22;11252;50.596;17.648;2022-09-17T07:47:39;12.40;92.20
22173;DHT22;11252;50.596;17.648;2022-09-17T07:50:07;12.40;92.20
22173;DHT22;11252;50.596;17.648;2022-09-17T07:52:35;12.40;92.20
22173;DHT22;11252;50.596;17.648;2022-09-17T07:55:03;12.60;92.20
22173;DHT22;11252;50.596;17.648;2022-09-17T07:57:30;12.60;92.20
22173;DHT22;11252;50.596;17.648;2022-09-17T07:59:58;12.80;92.20
22173;DHT22;11252;50.596;17.648;2022-09-17T08:02:25;13.00;92.20
22173;DHT22;11252;50.596;17.648;2022-09-17T08:04:54;13.20;92.20
22173;DHT22;11252;50.596;17.648;2022-09-17T08:07:22;13.20;92.20
22173;DHT22;11252;50.596;17.648;2022-09-17T08:09:50;13.20;92.20
22173;DHT22;11252;50.596;17.648;2022-09-17T08:12:18;13.20;92.20
22173;DHT22;11252;50.596;17.648;2022-09-17T08:14:46;13.20;92.20
22173;DHT22;11252;50.596;17.648;2022-09-17T08:17:13;13.10;92.20
22173;DHT22;11252;50.596;17.648;2022-09-17T08:19:41;13.20;92.20
22173;DHT22;11252;50.596;17.648;2022-09-17T08:22:08;13.20;92.20
22173;DHT22;11252;50.596;17.648;2022-09-17T08:24:36;13.10;92.20
22173;DHT22;11252;50.596;17.648;2022-09-17T08:27:03;13.20;92.20
22173;DHT22;11252;50.596;17.648;2022-09-17T08:29:31;13.20;92.20
22173;DHT22;11252;50.596;17.648;2022-09-17T08:32:01;13.10;92.20
22173;DHT22;11252;50.596;17.648;2022-09-17T08:34:29;13.10;92.20
22173;DHT22;11252;50.596;17.648;2022-09-17T08:36:56;13.10;92.20
22173;DHT22;11252;50.596;17.648;2022-09-17T08:39:24;13.00;92.20
22173;DHT22;11252;50.596;17.648;2022-09-17T08:42:11;12.90;92.20
22173;DHT22;11252;50.596;17.648;2022-09-17T08:44:43;12.90;92.20
22173;DHT22;11252;50.596;17.648;2022-09-17T08:47:35;12.90;92.20
22173;DHT22;11252;50.596;17.648;2022-09-17T09:04:35;13.50;92.20
22173;DHT22;11252;50.596;17.648;2022-09-17T09:07:28;13.50;92.20
22173;DHT22;11252;50.596;17.648;2022-09-17T09:12:32;13.40;92.20
22173;DHT22;11252;50.596;17.648;2022-09-17T09:15:05;13.30;92.20
22173;DHT22;11252;50.596;17.648;2022-09-17T09:17:45;13.20;92.20
22173;DHT22;11252;50.596;17.648;2022-09-17T09:20:22;13.20;92.20
22173;DHT22;11252;50.596;17.648;2022-09-17T09:22:53;13.20;92.20
22173;DHT22;11252;50.596;17.648;2022-09-17T09:25:24;13.30;92.20
22173;DHT22;11252;50.596;17.648;2022-09-17T09:27:59;13.30;92.20
22173;DHT22;11252;50.596;17.648;2022-09-17T09:30:42;13.40;92.20
22173;DHT22;11252;50.596;17.648;2022-09-17T09:33:17;13.50;92.20
22173;DHT22;11252;50.596;17.648;2022-09-17T09:35:45;13.50;92.20
22173;DHT22;11252;50.596;17.648;2022-09-17T09:41:05;13.60;92.20
22173;DHT22;11252;50.596;17.648;2022-09-17T09:43:56;13.50;92.20
22173;DHT22;11252;50.596;17.648;2022-09-17T09:52:38;13.80;92.20
22173;DHT22;11252;50.596;17.648;2022-09-17T09:55:38;13.90;92.20
22173;DHT22;11252;50.596;17.648;2022-09-17T10:00:41;14.00;92.20
22173;DHT22;11252;50.596;17.648;2022-09-17T10:03:26;14.00;92.20
22173;DHT22;11252;50.596;17.648;2022-09-17T10:06:01;14.10;92.20
22173;DHT22;11252;50.596;17.648;2022-09-17T10:08:34;14.20;92.20
22173;DHT22;11252;50.596;17.648;2022-09-17T10:11:23;14.20;92.20
22173;DHT22;11252;50.596;17.648;2022-09-17T10:13:51;14.30;92.20
22173;DHT22;11252;50.596;17.648;2022-09-17T10:16:26;14.30;92.20
22173;DHT22;11252;50.596;17.648;2022-09-17T10:19:12;14.30;92.20
22173;DHT22;11252;50.596;17.648;2022-09-17T10:21:41;14.40;92.20
22173;DHT22;11252;50.596;17.648;2022-09-17T10:24:22;14.50;92.20
22173;DHT22;11252;50.596;17.648;2022-09-17T10:26:59;14.60;92.20
22173;DHT22;11252;50.596;17.648;2022-09-17T10:29:27;14.60;92.20
22173;DHT22;11252;50.596;17.648;2022-09-17T10:31:56;14.70;92.20
22173;DHT22;11252;50.596;17.648;2022-09-17T10:34:31;14.90;92.20
22173;DHT22;11252;50.596;17.648;2022-09-17T10:36:59;15.10;92.20
22173;DHT22;11252;50.596;17.648;2022-09-17T10:39:35;15.50;92.20
22173;DHT22;11252;50.596;17.648;2022-09-17T10:42:15;15.80;92.20
22173;DHT22;11252;50.596;17.648;2022-09-17T10:47:44;15.90;91.10
22173;DHT22;11252;50.596;17.648;2022-09-17T10:50:33;15.60;91.20
22173;DHT22;11252;50.596;17.648;2022-09-17T10:53:04;15.30;92.20
22173;DHT22;11252;50.596;17.648;2022-09-17T10:55:41;15.10;92.20
22173;DHT22;11252;50.596;17.648;2022-09-17T11:06:57;14.70;92.20
22173;DHT22;11252;50.596;17.648;2022-09-17T11:19:57;14.20;92.20
22173;DHT22;11252;50.596;17.648;2022-09-17T11:36:17;14.50;92.20
22173;DHT22;11252;50.596;17.648;2022-09-17T11:38:52;14.40;92.20
22173;DHT22;11252;50.596;17.648;2022-09-17T11:41:36;14.40;92.20
22173;DHT22;11252;50.596;17.648;2022-09-17T11:44:37;14.40;92.20
22173;DHT22;11252;50.596;17.648;2022-09-17T11:47:13;14.30;92.20
22173;DHT22;11252;50.596;17.648;2022-09-17T11:49:58;14.20;92.20
22173;DHT22;11252;50.596;17.648;2022-09-17T11:52:35;14.10;92.20
22173;DHT22;11252;50.596;17.648;2022-09-17T11:55:32;14.10;92.20
22173;DHT22;11252;50.596;17.648;2022-09-17T11:58:27;14.20;92.20
22173;DHT22;11252;50.596;17.648;2022-09-17T12:01:06;14.00;92.20
22173;DHT22;11252;50.596;17.648;2022-09-17T12:03:40;14.00;92.20
22173;DHT22;11252;50.596;17.648;2022-09-17T12:06:13;14.10;92.20
22173;DHT22;11252;50.596;17.648;2022-09-17T12:09:18;14.10;92.20
22173;DHT22;11252;50.596;17.648;2022-09-17T12:12:05;14.10;92.20
22173;DHT22;11252;50.596;17.648;2022-09-17T12:14:51;14.00;92.20
22173;DHT22;11252;50.596;17.648;2022-09-17T12:17:27;14.10;92.20
22173;DHT22;11252;50.596;17.648;2022-09-17T12:20:03;14.10;92.20
22173;DHT22;11252;50.596;17.648;2022-09-17T12:22:36;14.20;92.20
22173;DHT22;11252;50.596;17.648;2022-09-17T12:25:11;14.40;92.20
22173;DHT22;11252;50.596;17.648;2022-09-17T12:30:22;14.80;92.20
22173;DHT22;11252;50.596;17.648;2022-09-17T12:38:55;14.60;92.20
22173;DHT22;11252;50.596;17.648;2022-09-17T12:41:35;14.60;92.20
22173;DHT22;11252;50.596;17.648;2022-09-17T12:57:30;14.40;92.20
22173;DHT22;11252;50.596;17.648;2022-09-17T13:00:07;14.40;92.20
22173;DHT22;11252;50.596;17.648;2022-09-17T13:02:47;14.50;92.20
22173;DHT22;11252;50.596;17.648;2022-09-17T13:17:21;15.00;92.20
22173;DHT22;11252;50.596;17.648;2022-09-17T13:20:04;15.10;92.20
22173;DHT22;11252;50.596;17.648;2022-09-17T13:22:46;15.30;92.20
22173;DHT22;11252;50.596;17.648;2022-09-17T13:25:16;15.40;92.20
22173;DHT22;11252;50.596;17.648;2022-09-17T13:27:45;15.70;92.00
22173;DHT22;11252;50.596;17.648;2022-09-17T13:30:18;15.70;90.70
22173;DHT22;11252;50.596;17.648;2022-09-17T13:32:51;15.70;90.90
22173;DHT22;11252;50.596;17.648;2022-09-17T13:40:34;15.10;91.00
22173;DHT22;11252;50.596;17.648;2022-09-17T13:43:10;15.00;91.20
22173;DHT22;11252;50.596;17.648;2022-09-17T13:48:33;15.00;92.00
22173;DHT22;11252;50.596;17.648;2022-09-17T13:51:54;15.00;91.90
22173;DHT22;11252;50.596;17.648;2022-09-17T13:54:16;14.90;91.70
22173;DHT22;11252;50.596;17.648;2022-09-17T13:56:47;14.70;91.80
22173;DHT22;11252;50.596;17.648;2022-09-17T13:59:21;14.70;92.20
22173;DHT22;11252;50.596;17.648;2022-09-17T14:07:32;14.70;92.20
22173;DHT22;11252;50.596;17.648;2022-09-17T14:18:32;14.60;92.20
22173;DHT22;11252;50.596;17.648;2022-09-17T14:21:24;14.50;92.20
22173;DHT22;11252;50.596;17.648;2022-09-17T14:24:12;14.20;92.20
22173;DHT22;11252;50.596;17.648;2022-09-17T14:26:57;13.60;92.20
22173;DHT22;11252;50.596;17.648;2022-09-17T14:32:26;13.30;92.20
22173;DHT22;11252;50.596;17.648;2022-09-17T14:34:57;13.20;92.20
22173;DHT22;11252;50.596;17.648;2022-09-17T14:37:27;13.20;92.20
22173;DHT22;11252;50.596;17.648;2022-09-17T14:39:55;13.20;92.20
22173;DHT22;11252;50.596;17.648;2022-09-17T14:42:34;13.20;92.20
22173;DHT22;11252;50.596;17.648;2022-09-17T14:45:16;13.20;92.20
22173;DHT22;11252;50.596;17.648;2022-09-17T14:47:45;13.20;92.20
22173;DHT22;11252;50.596;17.648;2022-09-17T14:50:23;13.20;92.20
22173;DHT22;11252;50.596;17.648;2022-09-17T14:52:52;13.20;92.20
22173;DHT22;11252;50.596;17.648;2022-09-17T14:55:23;13.20;92.20
22173;DHT22;11252;50.596;17.648;2022-09-17T14:57:56;13.20;92.20
22173;DHT22;11252;50.596;17.648;2022-09-17T15:00:34;13.10;92.20
22173;DHT22;11252;50.596;17.648;2022-09-17T15:03:04;13.10;92.20
22173;DHT22;11252;50.596;17.648;2022-09-17T15:05:34;13.00;92.20
22173;DHT22;11252;50.596;17.648;2022-09-17T15:08:14;13.00;92.20
22173;DHT22;11252;50.596;17.648;2022-09-17T15:11:02;12.90;92.20
22173;DHT22;11252;50.596;17.648;2022-09-17T15:13:34;12.80;92.20
22173;DHT22;11252;50.596;17.648;2022-09-17T15:16:12;12.80;92.20
22173;DHT22;11252;50.596;17.648;2022-09-17T15:18:48;12.80;92.20
22173;DHT22;11252;50.596;17.648;2022-09-17T15:24:27;12.80;92.20
22173;DHT22;11252;50.596;17.648;2022-09-17T15:27:01;12.80;92.20
22173;DHT22;11252;50.596;17.648;2022-09-17T15:29:33;12.80;92.20
22173;DHT22;11252;50.596;17.648;2022-09-17T15:32:05;12.80;92.20
22173;DHT22;11252;50.596;17.648;2022-09-17T15:34:32;12.80;92.20
22173;DHT22;11252;50.596;17.648;2022-09-17T15:37:20;12.80;92.20
22173;DHT22;11252;50.596;17.648;2022-09-17T15:39:52;12.80;92.20
22173;DHT22;11252;50.596;17.648;2022-09-17T15:42:28;12.80;92.20
22173;DHT22;11252;50.596;17.648;2022-09-17T15:45:19;12.80;92.20
22173;DHT22;11252;50.596;17.648;2022-09-17T15:50:25;12.70;92.20
22173;DHT22;11252;50.596;17.648;2022-09-17T15:55:39;12.70;92.20
22173;DHT22;11252;50.596;17.648;2022-09-17T15:58:25;12.70;92.20
22173;DHT22;11252;50.596;17.648;2022-09-17T16:08:53;12.70;92.20
22173;DHT22;11252;50.596;17.648;2022-09-17T16:11:24;12.80;92.20
22173;DHT22;11252;50.596;17.648;2022-09-17T16:13:53;12.80;92.20
22173;DHT22;11252;50.596;17.648;2022-09-17T16:16:34;12.80;92.20
22173;DHT22;11252;50.596;17.648;2022-09-17T16:19:03;12.70;92.20
22173;DHT22;11252;50.596;17.648;2022-09-17T16:21:34;12.70;92.20
22173;DHT22;11252;50.596;17.648;2022-09-17T16:24:02;12.70;92.20
22173;DHT22;11252;50.596;17.648;2022-09-17T16:26:34;12.60;92.20
22173;DHT22;11252;50.596;17.648;2022-09-17T16:29:04;12.60;92.20
22173;DHT22;11252;50.596;17.648;2022-09-17T16:31:33;12.50;92.20
22173;DHT22;11252;50.596;17.648;2022-09-17T16:34:00;12.50;92.20
22173;DHT22;11252;50.596;17.648;2022-09-17T16:36:28;12.50;92.20
22173;DHT22;11252;50.596;17.648;2022-09-17T16:38:59;12.50;92.20
22173;DHT22;11252;50.596;17.648;2022-09-17T16:41:27;12.50;92.20
22173;DHT22;11252;50.596;17.648;2022-09-17T16:43:54;12.50;92.20
22173;DHT22;11252;50.596;17.648;2022-09-17T16:46:23;12.50;92.20
22173;DHT22;11252;50.596;17.648;2022-09-17T16:48:50;12.50;92.20
22173;DHT22;11252;50.596;17.648;2022-09-17T16:51:18;12.40;92.20
22173;DHT22;11252;50.596;17.648;2022-09-17T16:53:46;12.40;92.20
22173;DHT22;11252;50.596;17.648;2022-09-17T16:56:14;12.40;92.20
22173;DHT22;11252;50.596;17.648;2022-09-17T16:58:42;12.40;92.20
22173;DHT22;11252;50.596;17.648;2022-09-17T17:01:11;12.40;92.20
22173;DHT22;11252;50.596;17.648;2022-09-17T17:03:40;12.40;92.20
22173;DHT22;11252;50.596;17.648;2022-09-17T17:06:18;12.30;92.20
22173;DHT22;11252;50.596;17.648;2022-09-17T17:08:46;12.30;92.20
22173;DHT22;11252;50.596;17.648;2022-09-17T17:11:14;12.30;92.20
22173;DHT22;11252;50.596;17.648;2022-09-17T17:13:42;12.20;92.20
22173;DHT22;11252;50.596;17.648;2022-09-17T17:16:11;12.20;92.20
22173;DHT22;11252;50.596;17.648;2022-09-17T17:18:43;12.10;92.20
22173;DHT22;11252;50.596;17.648;2022-09-17T17:21:12;12.10;92.20
22173;DHT22;11252;50.596;17.648;2022-09-17T17:23:40;12.00;92.20
22173;DHT22;11252;50.596;17.648;2022-09-17T17:26:10;12.00;92.20
22173;DHT22;11252;50.596;17.648;2022-09-17T17:28:37;12.00;92.20
22173;DHT22;11252;50.596;17.648;2022-09-17T17:31:05;12.00;92.20
22173;DHT22;11252;50.596;17.648;2022-09-17T17:33:32;12.00;92.20
22173;DHT22;11252;50.596;17.648;2022-09-17T17:36:03;12.00;92.20
22173;DHT22;11252;50.596;17.648;2022-09-17T17:38:34;12.00;92.20
22173;DHT22;11252;50.596;17.648;2022-09-17T17:41:09;12.00;92.20
22173;DHT22;11252;50.596;17.648;2022-09-17T17:43:37;12.00;92.20
22173;DHT22;11252;50.596;17.648;2022-09-17T17:46:06;12.00;92.20
22173;DHT22;11252;50.596;17.648;2022-09-17T17:48:35;12.00;92.20
22173;DHT22;11252;50.596;17.648;2022-09-17T17:51:08;12.00;92.20
22173;DHT22;11252;50.596;17.648;2022-09-17T17:53:36;12.00;92.20
22173;DHT22;11252;50.596;17.648;2022-09-17T17:56:08;12.00;92.20
22173;DHT22;11252;50.596;17.648;2022-09-17T17:58:36;12.00;92.20
22173;DHT22;11252;50.596;17.648;2022-09-17T18:01:13;12.00;92.20
22173;DHT22;11252;50.596;17.648;2022-09-17T18:03:41;12.00;92.20
22173;DHT22;11252;50.596;17.648;2022-09-17T18:06:09;12.00;92.20
22173;DHT22;11252;50.596;17.648;2022-09-17T18:08:38;12.00;92.20
22173;DHT22;11252;50.596;17.648;2022-09-17T18:11:07;11.90;92.20
22173;DHT22;11252;50.596;17.648;2022-09-17T18:13:35;11.90;92.20
22173;DHT22;11252;50.596;17.648;2022-09-17T18:16:08;11.90;92.20
22173;DHT22;11252;50.596;17.648;2022-09-17T18:18:39;11.80;92.20
22173;DHT22;11252;50.596;17.648;2022-09-17T18:21:16;11.80;92.20
22173;DHT22;11252;50.596;17.648;2022-09-17T18:23:44;11.80;92.20
22173;DHT22;11252;50.596;17.648;2022-09-17T18:26:21;11.80;92.20
22173;DHT22;11252;50.596;17.648;2022-09-17T18:28:49;11.70;92.20
22173;DHT22;11252;50.596;17.648;2022-09-17T18:33:55;11.70;92.20
22173;DHT22;11252;50.596;17.648;2022-09-17T18:36:25;11.70;92.20
22173;DHT22;11252;50.596;17.648;2022-09-17T18:38:57;11.70;92.20
22173;DHT22;11252;50.596;17.648;2022-09-17T18:41:48;11.70;92.20
22173;DHT22;11252;50.596;17.648;2022-09-17T18:44:15;11.70;92.20
22173;DHT22;11252;50.596;17.648;2022-09-17T18:46:45;11.70;92.20
22173;DHT22;11252;50.596;17.648;2022-09-17T18:49:13;11.70;92.20
22173;DHT22;11252;50.596;17.648;2022-09-17T18:51:41;11.70;92.20
22173;DHT22;11252;50.596;17.648;2022-09-17T18:54:10;11.70;92.20
22173;DHT22;11252;50.596;17.648;2022-09-17T18:56:39;11.70;92.20